createdAt,value
2019-03-12T00:01:33.474Z,1.53
2019-03-12T00:03:38.658Z,1.70
2019-03-12T00:05:44.281Z,1.87
2019-03-12T00:07:50.054Z,2.03
2019-03-12T00:09:55.224Z,1.53
2019-03-12T00:12:00.206Z,2.00
2019-03-12T00:14:05.347Z,2.13
2019-03-12T00:16:10.345Z,2.10
2019-03-12T00:18:15.627Z,1.40
2019-03-12T00:20:21.400Z,1.50
2019-03-12T00:22:26.556Z,2.17
2019-03-12T00:24:31.993Z,2.00
2019-03-12T00:26:37.577Z,1.80
2019-03-12T00:28:42.745Z,1.63
2019-03-12T00:30:47.984Z,1.63
2019-03-12T00:32:55.756Z,1.43
2019-03-12T00:35:00.590Z,1.50
2019-03-12T00:37:05.800Z,1.50
2019-03-12T00:39:10.746Z,1.87
2019-03-12T00:41:15.618Z,1.80
2019-03-12T00:43:21.265Z,1.80
2019-03-12T00:45:26.411Z,2.10
2019-03-12T00:47:31.240Z,1.77
2019-03-12T00:49:36.752Z,1.80
2019-03-12T00:51:41.871Z,2.00
2019-03-12T00:53:47.320Z,1.90
2019-03-12T00:55:52.592Z,1.93
2019-03-12T00:57:58.061Z,1.80
2019-03-12T01:00:03.458Z,1.80
2019-03-12T01:02:08.767Z,2.50
2019-03-12T01:04:14.235Z,2.30
2019-03-12T01:06:19.477Z,1.87
2019-03-12T01:08:25.026Z,1.90
2019-03-12T01:10:30.413Z,2.80
2019-03-12T01:12:35.961Z,2.43
2019-03-12T01:14:40.898Z,2.30
2019-03-12T01:16:45.919Z,2.90
2019-03-12T01:18:50.850Z,2.07
2019-03-12T01:20:56.063Z,1.73
2019-03-12T01:23:00.907Z,2.13
2019-03-12T01:25:08.631Z,2.37
2019-03-12T01:27:13.495Z,2.23
2019-03-12T01:29:18.429Z,2.10
2019-03-12T01:31:23.744Z,2.27
2019-03-12T01:33:28.928Z,2.90
2019-03-12T01:35:33.949Z,2.80
2019-03-12T01:37:38.945Z,2.40
2019-03-12T01:39:44.607Z,2.43
2019-03-12T01:41:50.369Z,2.40
2019-03-12T01:43:55.818Z,2.20
2019-03-12T01:46:00.760Z,2.57
2019-03-12T01:48:05.844Z,2.33
2019-03-12T01:50:11.434Z,2.30
2019-03-12T01:52:16.339Z,2.23
2019-03-12T01:54:21.222Z,2.10
2019-03-12T01:56:26.437Z,2.77
2019-03-12T01:58:31.896Z,2.50
2019-03-12T02:00:45.910Z,2.80
2019-03-12T02:02:53.389Z,2.27
2019-03-12T02:05:01.261Z,2.20
2019-03-12T02:07:08.941Z,1.90
2019-03-12T02:09:15.924Z,2.50
2019-03-12T02:11:21.034Z,2.77
2019-03-12T02:13:26.726Z,3.07
2019-03-12T02:15:31.959Z,2.43
2019-03-12T02:17:37.373Z,2.30
2019-03-12T02:19:42.268Z,2.07
2019-03-12T02:21:48.326Z,2.37
2019-03-12T02:23:53.765Z,2.40
2019-03-12T02:25:59.040Z,2.60
2019-03-12T02:28:04.036Z,2.50
2019-03-12T02:30:12.439Z,2.43
2019-03-12T02:32:17.634Z,2.60
2019-03-12T02:34:23.386Z,2.60
2019-03-12T02:36:28.994Z,2.73
2019-03-12T02:38:34.479Z,3.07
2019-03-12T02:40:39.439Z,2.93
2019-03-12T02:42:44.736Z,2.90
2019-03-12T02:44:49.770Z,2.70
2019-03-12T02:46:55.102Z,2.23
2019-03-12T02:49:00.765Z,2.90
2019-03-12T02:51:06.518Z,2.80
2019-03-12T02:53:11.729Z,3.33
2019-03-12T02:55:16.943Z,2.93
2019-03-12T02:57:22.585Z,2.77
2019-03-12T02:59:27.713Z,3.20
2019-03-12T03:01:37.808Z,3.50
2019-03-12T03:03:43.319Z,3.17
2019-03-12T03:06:10.080Z,3.37
2019-03-12T03:08:15.645Z,3.37
2019-03-12T03:10:20.585Z,3.27
2019-03-12T03:12:25.482Z,3.37
2019-03-12T03:14:40.770Z,2.87
2019-03-12T03:16:46.041Z,2.90
2019-03-12T03:18:50.952Z,3.50
2019-03-12T03:20:55.819Z,2.70
2019-03-12T03:23:01.178Z,3.47
2019-03-12T03:25:08.360Z,3.67
2019-03-12T03:27:13.322Z,3.60
2019-03-12T03:29:18.897Z,3.30
2019-03-12T03:31:24.138Z,3.50
2019-03-12T03:33:29.132Z,3.87
2019-03-12T03:35:33.966Z,4.07
2019-03-12T03:37:39.582Z,3.50
2019-03-12T03:39:44.741Z,3.87
2019-03-12T03:41:50.308Z,3.60
2019-03-12T03:43:55.645Z,3.87
2019-03-12T03:46:00.977Z,3.67
2019-03-12T03:48:06.057Z,3.93
2019-03-12T03:50:11.368Z,4.20
2019-03-12T03:52:16.245Z,3.87
2019-03-12T03:54:21.271Z,4.17
2019-03-12T03:56:26.203Z,4.57
2019-03-12T03:58:31.752Z,3.60
2019-03-12T04:00:36.638Z,4.57
2019-03-12T04:02:41.502Z,4.47
2019-03-12T04:04:46.348Z,4.40
2019-03-12T04:06:51.829Z,4.70
2019-03-12T04:08:57.043Z,3.67
2019-03-12T04:11:01.910Z,4.90
2019-03-12T04:13:07.202Z,4.57
2019-03-12T04:15:12.707Z,4.30
2019-03-12T04:17:17.526Z,4.60
2019-03-12T04:19:22.765Z,4.57
2019-03-12T04:21:27.670Z,4.33
2019-03-12T04:23:32.622Z,4.20
2019-03-12T04:25:37.735Z,4.60
2019-03-12T04:27:43.086Z,4.23
2019-03-12T04:29:47.945Z,4.87
2019-03-12T04:31:52.917Z,4.63
2019-03-12T04:34:29.939Z,4.83
2019-03-12T04:36:54.054Z,4.63
2019-03-12T04:38:58.978Z,4.27
2019-03-12T04:41:03.904Z,4.60
2019-03-12T04:43:08.747Z,4.47
2019-03-12T04:45:15.671Z,5.13
2019-03-12T04:47:59.127Z,4.47
2019-03-12T04:50:04.489Z,4.80
2019-03-12T04:52:09.431Z,4.87
2019-03-12T04:54:14.330Z,5.10
2019-03-12T04:56:19.803Z,4.97
2019-03-12T04:58:25.770Z,4.53
2019-03-12T05:00:31.101Z,5.70
2019-03-12T05:02:35.943Z,5.23
2019-03-12T05:04:41.227Z,5.70
2019-03-12T05:06:46.389Z,5.60
2019-03-12T05:08:51.677Z,5.20
2019-03-12T05:10:56.891Z,5.97
2019-03-12T05:13:01.741Z,5.50
2019-03-12T05:15:10.203Z,5.43
2019-03-12T05:17:25.829Z,5.30
2019-03-12T05:19:30.930Z,5.83
2019-03-12T05:21:36.068Z,6.33
2019-03-12T05:23:41.638Z,4.93
2019-03-12T05:25:46.477Z,5.40
2019-03-12T05:27:51.655Z,5.93
2019-03-12T05:29:57.064Z,5.37
2019-03-12T05:32:01.913Z,5.90
2019-03-12T05:34:07.017Z,5.97
2019-03-12T05:36:12.149Z,5.73
2019-03-12T05:38:17.438Z,5.33
2019-03-12T05:40:22.274Z,5.00
2019-03-12T05:42:27.736Z,5.47
2019-03-12T05:44:33.254Z,4.90
2019-03-12T05:46:40.071Z,5.97
2019-03-12T05:48:45.039Z,5.33
2019-03-12T05:50:53.941Z,5.23
2019-03-12T05:53:14.421Z,5.50
2019-03-12T05:55:19.477Z,5.80
2019-03-12T05:57:24.766Z,6.03
2019-03-12T05:59:30.003Z,5.80
2019-03-12T06:01:35.128Z,5.30
2019-03-12T06:03:40.519Z,5.50
2019-03-12T06:05:45.665Z,5.30
2019-03-12T06:07:50.825Z,5.80
2019-03-12T06:09:56.498Z,5.33
2019-03-12T06:12:02.537Z,5.37
2019-03-12T06:16:16.815Z,5.07
2019-03-12T06:18:22.581Z,5.60
2019-03-12T06:20:28.214Z,5.73
2019-03-12T06:22:33.555Z,5.73
2019-03-12T06:24:38.918Z,5.30
2019-03-12T06:26:43.855Z,5.57
2019-03-12T06:28:49.025Z,5.10
2019-03-12T06:31:11.858Z,5.33
2019-03-12T06:33:24.298Z,4.60
2019-03-12T06:35:33.486Z,4.90
2019-03-12T06:37:47.490Z,5.27
2019-03-12T06:40:23.995Z,5.17
2019-03-12T06:42:54.803Z,5.07
2019-03-12T06:45:07.314Z,4.90
2019-03-12T06:47:37.640Z,5.90
2019-03-12T06:49:48.199Z,5.90
2019-03-12T06:52:12.820Z,6.47
2019-03-12T06:54:27.787Z,5.07
2019-03-12T06:56:58.129Z,4.97
2019-03-12T06:59:25.074Z,5.20
2019-03-12T07:01:42.396Z,4.63
2019-03-12T07:04:05.168Z,4.57
2019-03-12T07:06:28.192Z,4.40
2019-03-12T07:08:49.446Z,5.20
2019-03-12T07:11:03.864Z,4.70
2019-03-12T07:13:27.059Z,5.07
2019-03-12T07:15:40.821Z,3.97
2019-03-12T07:18:00.474Z,4.20
2019-03-12T07:20:27.063Z,3.90
2019-03-12T07:22:54.000Z,3.97
2019-03-12T07:25:04.365Z,2.80
2019-03-12T07:27:30.036Z,3.47
2019-03-12T07:29:49.615Z,3.53
2019-03-12T07:32:14.083Z,2.47
2019-03-12T07:34:37.039Z,2.57
2019-03-12T07:36:53.271Z,2.47
2019-03-12T07:39:05.932Z,3.33
2019-03-12T07:41:35.782Z,1.57
2019-03-12T07:44:03.216Z,2.03
2019-03-12T07:46:30.278Z,1.77
2019-03-12T07:48:54.496Z,1.77
2019-03-12T07:51:12.942Z,1.50
2019-03-12T07:53:29.250Z,2.10
2019-03-12T07:56:05.413Z,1.63
2019-03-12T07:58:36.237Z,1.53
2019-03-12T08:01:03.288Z,1.90
2019-03-12T08:03:19.460Z,1.60
2019-03-12T08:05:39.145Z,1.40
2019-03-12T08:08:09.352Z,1.90
2019-03-12T08:10:26.114Z,1.67
2019-03-12T08:12:40.524Z,1.77
2019-03-12T08:15:02.759Z,2.13
2019-03-12T08:17:25.910Z,1.73
2019-03-12T08:19:44.175Z,1.87
2019-03-12T08:22:14.095Z,2.27
2019-03-12T08:24:38.027Z,1.97
2019-03-12T08:26:53.117Z,1.37
2019-03-12T08:29:04.001Z,1.87
2019-03-12T08:31:26.150Z,2.10
2019-03-12T08:33:50.755Z,1.60
2019-03-12T08:36:20.755Z,2.23
2019-03-12T08:38:41.961Z,1.53
2019-03-12T08:40:57.438Z,1.97
2019-03-12T08:43:07.608Z,1.70
2019-03-12T08:45:49.924Z,2.07
2019-03-12T08:48:02.373Z,1.83
2019-03-12T08:50:16.595Z,1.87
2019-03-12T08:52:43.230Z,2.53
2019-03-12T08:55:25.613Z,1.73
2019-03-12T08:57:41.355Z,1.80
2019-03-12T09:00:11.625Z,1.83
2019-03-12T09:02:41.920Z,1.57
2019-03-12T09:05:09.474Z,1.87
2019-03-12T09:07:46.036Z,1.90
2019-03-12T09:09:57.034Z,1.90
2019-03-12T09:12:19.609Z,1.53
2019-03-12T09:14:42.674Z,1.70
2019-03-12T09:17:05.320Z,1.77
2019-03-12T09:19:29.567Z,1.40
2019-03-12T09:21:52.283Z,2.10
2019-03-12T09:24:08.965Z,1.70
2019-03-12T09:26:39.253Z,1.93
2019-03-12T09:29:03.770Z,1.80
2019-03-12T09:31:24.294Z,1.63
2019-03-12T09:33:48.158Z,1.93
2019-03-12T09:36:15.279Z,1.23
2019-03-12T09:38:28.545Z,1.63
2019-03-12T09:40:51.279Z,2.07
2019-03-12T09:43:14.130Z,1.73
2019-03-12T09:45:41.557Z,1.77
2019-03-12T09:47:53.293Z,1.47
2019-03-12T09:50:15.186Z,2.00
2019-03-12T09:52:39.393Z,1.57
2019-03-12T09:55:04.994Z,1.77
2019-03-12T09:57:15.839Z,1.63
2019-03-12T09:59:40.413Z,1.47
2019-03-12T10:02:04.619Z,1.93
2019-03-12T10:04:26.001Z,1.80
2019-03-12T10:06:43.604Z,2.50
2019-03-12T10:09:19.790Z,1.97
2019-03-12T10:11:41.815Z,1.77
2019-03-12T10:14:11.611Z,1.37
2019-03-12T10:16:34.694Z,2.13
2019-03-12T10:19:03.522Z,1.40
2019-03-12T10:21:29.077Z,1.70
2019-03-12T10:23:45.158Z,1.40
2019-03-12T10:26:09.107Z,1.80
2019-03-12T10:28:32.204Z,1.47
2019-03-12T10:30:58.181Z,1.93
2019-03-12T10:33:13.245Z,1.27
2019-03-12T10:35:28.087Z,1.50
2019-03-12T10:37:55.162Z,1.80
2019-03-12T10:40:14.885Z,1.40
2019-03-12T10:42:31.944Z,1.60
2019-03-12T10:44:47.016Z,1.60
2019-03-12T10:46:58.709Z,1.83
2019-03-12T10:49:04.022Z,1.93
2019-03-12T10:51:09.476Z,1.37
2019-03-12T10:53:14.923Z,1.47
2019-03-12T10:55:20.138Z,1.50
2019-03-12T10:57:25.669Z,1.43
2019-03-12T10:59:31.107Z,2.90
2019-03-12T11:01:37.204Z,1.40
2019-03-12T11:03:42.084Z,1.53
2019-03-12T11:05:47.468Z,1.67
2019-03-12T11:07:53.203Z,7.83
2019-03-12T11:09:58.147Z,2.23
2019-03-12T11:12:03.274Z,2.70
2019-03-12T11:14:08.713Z,1.40
2019-03-12T11:16:13.734Z,1.50
2019-03-12T11:18:18.606Z,4.37
2019-03-12T11:20:23.714Z,2.20
2019-03-12T11:22:28.720Z,1.30
2019-03-12T11:24:33.613Z,1.80
2019-03-12T11:26:38.573Z,1.33
2019-03-12T11:28:43.863Z,1.23
2019-03-12T11:30:49.202Z,1.10
2019-03-12T11:32:54.482Z,1.23
2019-03-12T11:34:59.460Z,1.57
2019-03-12T11:37:04.598Z,1.47
2019-03-12T11:39:10.165Z,1.10
2019-03-12T11:41:15.156Z,1.37
2019-03-12T11:43:20.420Z,1.30
2019-03-12T11:45:36.125Z,1.53
2019-03-12T11:47:32.717Z,1.27
2019-03-12T11:49:38.295Z,1.30
2019-03-12T11:51:43.635Z,1.10
2019-03-12T11:53:48.875Z,1.03
2019-03-12T11:55:54.306Z,1.00
2019-03-12T11:57:59.567Z,1.00
2019-03-12T12:00:06.408Z,1.20
2019-03-12T12:02:11.847Z,1.17
2019-03-12T12:04:17.072Z,1.50
2019-03-12T12:06:22.836Z,1.30
2019-03-12T12:08:27.777Z,1.17
2019-03-12T12:10:32.983Z,0.80
2019-03-12T12:12:40.197Z,1.27
2019-03-12T12:14:44.705Z,1.40
2019-03-12T12:16:49.943Z,1.63
2019-03-12T12:18:55.131Z,1.30
2019-03-12T12:21:00.100Z,1.13
2019-03-12T12:23:05.668Z,1.40
2019-03-12T12:25:12.318Z,1.27
2019-03-12T12:27:17.191Z,1.03
2019-03-12T12:29:22.320Z,1.40
2019-03-12T12:31:27.674Z,1.60
2019-03-12T12:33:32.917Z,1.03
2019-03-12T12:35:37.902Z,1.17
2019-03-12T12:37:43.103Z,1.30
2019-03-12T12:39:48.554Z,1.20
2019-03-12T12:41:54.064Z,1.10
2019-03-12T12:43:59.311Z,0.80
2019-03-12T12:46:04.236Z,0.93
2019-03-12T12:48:09.666Z,1.00
2019-03-12T12:50:15.785Z,1.20
2019-03-12T12:52:21.157Z,1.53
2019-03-12T12:54:26.609Z,1.20
2019-03-12T12:56:32.157Z,1.00
2019-03-12T12:58:37.740Z,0.93
2019-03-12T13:00:43.387Z,1.10
2019-03-12T13:02:48.961Z,1.10
2019-03-12T13:04:54.126Z,1.77
2019-03-12T13:06:59.104Z,1.30
2019-03-12T13:09:05.712Z,1.57
2019-03-12T13:11:10.766Z,1.10
2019-03-12T13:13:16.053Z,1.00
2019-03-12T13:15:21.144Z,2.30
2019-03-12T13:17:26.151Z,1.27
2019-03-12T13:19:31.222Z,1.63
2019-03-12T13:21:36.145Z,1.20
2019-03-12T13:23:41.099Z,1.47
2019-03-12T13:25:45.980Z,1.30
2019-03-12T13:27:51.071Z,1.40
2019-03-12T13:29:56.763Z,1.37
2019-03-12T13:32:13.079Z,1.27
2019-03-12T13:34:08.357Z,1.17
2019-03-12T13:36:16.617Z,1.30
2019-03-12T13:38:21.973Z,1.27
2019-03-12T13:40:27.767Z,1.20
2019-03-12T13:42:33.386Z,1.37
2019-03-12T13:44:38.482Z,1.40
2019-03-12T13:46:43.535Z,1.10
2019-03-12T13:48:48.477Z,1.50
2019-03-12T13:50:53.635Z,1.27
2019-03-12T13:52:58.806Z,1.60
2019-03-12T13:55:04.312Z,1.80
2019-03-12T13:57:09.630Z,1.23
2019-03-12T13:59:14.786Z,1.30
2019-03-12T14:01:19.854Z,1.10
2019-03-12T14:03:25.110Z,1.93
2019-03-12T14:05:30.344Z,1.63
2019-03-12T14:07:35.987Z,1.20
2019-03-12T14:09:40.987Z,1.73
2019-03-12T14:11:47.809Z,1.47
2019-03-12T14:13:53.392Z,1.43
2019-03-12T14:15:59.381Z,1.23
2019-03-12T14:18:05.305Z,1.30
2019-03-12T14:20:40.386Z,1.20
2019-03-12T14:22:50.124Z,1.40
2019-03-12T14:24:59.394Z,1.30
2019-03-12T14:27:04.762Z,1.13
2019-03-12T14:29:09.907Z,1.00
2019-03-12T14:31:15.564Z,1.60
2019-03-12T14:33:21.281Z,0.70
2019-03-12T14:35:26.225Z,1.40
2019-03-12T14:37:31.258Z,1.00
2019-03-12T14:39:36.706Z,1.20
2019-03-12T14:41:42.076Z,8.10
2019-03-12T14:43:47.808Z,12.07
2019-03-12T14:45:53.505Z,3.47
2019-03-12T14:47:59.041Z,4.27
2019-03-12T14:50:04.920Z,2.07
2019-03-12T14:52:24.725Z,1.50
2019-03-12T14:54:33.662Z,3.57
2019-03-12T14:56:39.113Z,1.20
2019-03-12T14:58:44.155Z,2.10
2019-03-12T15:00:49.193Z,1.10
2019-03-12T15:02:55.074Z,2.00
2019-03-12T15:05:00.125Z,2.30
2019-03-12T15:07:05.815Z,2.20
2019-03-12T15:09:14.328Z,1.03
2019-03-12T15:11:19.270Z,1.87
2019-03-12T15:13:24.270Z,1.33
2019-03-12T15:15:29.202Z,1.40
2019-03-12T15:17:35.179Z,1.20
2019-03-12T15:19:40.602Z,1.37
2019-03-12T15:21:45.712Z,1.10
2019-03-12T15:23:51.417Z,1.10
2019-03-12T15:25:56.764Z,0.93
2019-03-12T15:28:01.971Z,1.60
2019-03-12T15:30:12.138Z,1.00
2019-03-12T15:32:17.075Z,1.10
2019-03-12T15:34:22.186Z,1.73
2019-03-12T15:36:27.643Z,1.17
2019-03-12T15:38:33.408Z,1.10
2019-03-12T15:40:38.977Z,1.33
2019-03-12T15:42:43.986Z,1.30
2019-03-12T15:44:49.706Z,1.00
2019-03-12T15:46:54.687Z,1.70
2019-03-12T15:48:59.589Z,1.20
2019-03-12T15:51:04.695Z,1.20
2019-03-12T15:53:10.007Z,1.10
2019-03-12T15:55:15.007Z,1.37
2019-03-12T15:57:19.865Z,1.40
2019-03-12T15:59:24.967Z,1.17
2019-03-12T16:01:29.840Z,0.90
2019-03-12T16:03:35.045Z,1.30
2019-03-12T16:05:40.031Z,0.83
2019-03-12T16:07:45.843Z,3.80
2019-03-12T16:09:50.700Z,1.23
2019-03-12T16:11:56.690Z,1.70
2019-03-12T16:14:01.570Z,7.37
2019-03-12T16:16:06.826Z,9.63
2019-03-12T16:18:14.454Z,2.27
2019-03-12T16:20:18.707Z,2.03
2019-03-12T16:22:24.306Z,1.30
2019-03-12T16:24:29.304Z,1.87
2019-03-12T16:26:34.424Z,2.57
2019-03-12T16:28:40.410Z,2.77
2019-03-12T16:30:46.076Z,7.43
2019-03-12T16:32:51.302Z,5.63
2019-03-12T16:34:56.790Z,2.17
2019-03-12T16:37:02.013Z,9.20
2019-03-12T16:39:08.221Z,5.47
2019-03-12T16:41:13.552Z,2.83
2019-03-12T16:43:21.988Z,2.10
2019-03-12T16:45:25.887Z,1.40
2019-03-12T16:47:31.196Z,2.63
2019-03-12T16:49:36.157Z,2.17
2019-03-12T16:51:41.773Z,1.40
2019-03-12T16:53:47.340Z,1.30
2019-03-12T16:55:52.892Z,1.40
2019-03-12T16:57:58.111Z,1.90
2019-03-12T17:00:08.219Z,1.73
2019-03-12T17:02:10.134Z,2.17
2019-03-12T17:04:15.793Z,2.03
2019-03-12T17:06:21.151Z,5.83
2019-03-12T17:08:26.468Z,7.63
2019-03-12T17:10:31.703Z,4.33
2019-03-12T17:12:36.661Z,3.10
2019-03-12T17:14:41.852Z,13.27
2019-03-12T17:16:50.309Z,2.17
2019-03-12T17:18:55.284Z,2.40
2019-03-12T17:21:00.580Z,1.60
2019-03-12T17:23:05.483Z,1.10
2019-03-12T17:25:11.144Z,1.20
2019-03-12T17:27:16.136Z,2.40
2019-03-12T17:29:21.914Z,1.40
2019-03-12T17:31:27.162Z,1.30
2019-03-12T17:33:32.101Z,1.40
2019-03-12T17:35:37.128Z,1.07
2019-03-12T17:37:42.241Z,1.00
2019-03-12T17:39:47.898Z,1.07
2019-03-12T17:41:55.004Z,1.00
2019-03-12T17:43:59.899Z,1.17
2019-03-12T17:46:05.293Z,1.00
2019-03-12T17:48:10.926Z,0.73
2019-03-12T17:50:16.247Z,1.40
2019-03-12T17:52:21.891Z,0.60
2019-03-12T17:54:27.132Z,0.70
2019-03-12T17:56:32.843Z,1.70
2019-03-12T17:58:38.132Z,0.80
2019-03-12T18:00:44.320Z,2.23
2019-03-12T18:02:49.290Z,1.27
2019-03-12T18:04:54.687Z,1.07
2019-03-12T18:07:00.209Z,0.73
2019-03-12T18:09:08.758Z,0.93
2019-03-12T18:11:14.055Z,0.90
2019-03-12T18:13:19.547Z,1.00
2019-03-12T18:15:25.366Z,0.90
2019-03-12T18:17:30.630Z,0.93
2019-03-12T18:19:35.935Z,0.70
2019-03-12T18:21:41.209Z,0.87
2019-03-12T18:23:46.499Z,0.93
2019-03-12T18:25:51.631Z,0.77
2019-03-12T18:27:56.736Z,0.80
2019-03-12T18:30:01.960Z,0.57
2019-03-12T18:32:07.776Z,0.70
2019-03-12T18:34:15.943Z,1.07
2019-03-12T18:36:21.095Z,0.80
2019-03-12T18:38:26.157Z,0.83
2019-03-12T18:40:31.355Z,0.80
2019-03-12T18:42:36.568Z,0.70
2019-03-12T18:44:41.863Z,0.90
2019-03-12T18:46:46.717Z,0.90
2019-03-12T18:48:52.103Z,0.97
2019-03-12T18:50:57.415Z,0.60
2019-03-12T18:53:02.998Z,1.00
2019-03-12T18:55:09.619Z,0.90
2019-03-12T18:57:14.647Z,0.60
2019-03-12T18:59:19.875Z,0.90
2019-03-12T19:01:24.780Z,0.70
2019-03-12T19:03:29.995Z,0.63
2019-03-12T19:05:35.141Z,0.83
2019-03-12T19:07:40.414Z,0.57
2019-03-12T19:09:45.966Z,0.70
2019-03-12T19:11:51.231Z,0.60
2019-03-12T19:13:56.502Z,0.63
2019-03-12T19:16:02.128Z,0.60
2019-03-12T19:18:08.362Z,0.80
2019-03-12T19:20:13.690Z,0.60
2019-03-12T19:22:19.032Z,2.70
2019-03-12T19:24:24.496Z,0.97
2019-03-12T19:26:29.942Z,0.90
2019-03-12T19:28:34.973Z,0.67
2019-03-12T19:30:41.477Z,0.70
2019-03-12T19:32:56.375Z,0.90
2019-03-12T19:35:01.610Z,0.90
2019-03-12T19:37:07.225Z,0.90
2019-03-12T19:39:14.170Z,0.50
2019-03-12T19:41:19.426Z,0.70
2019-03-12T19:43:25.017Z,0.90
2019-03-12T19:45:30.501Z,0.70
2019-03-12T19:47:35.625Z,0.70
2019-03-12T19:49:41.010Z,0.60
2019-03-12T19:51:46.417Z,0.67
2019-03-12T19:53:51.776Z,0.70
2019-03-12T19:55:56.833Z,0.90
2019-03-12T19:58:12.607Z,1.00
2019-03-12T20:00:20.069Z,0.80
2019-03-12T20:02:25.643Z,0.93
2019-03-12T20:04:30.685Z,0.97
2019-03-12T20:06:36.493Z,0.53
2019-03-12T20:08:41.802Z,1.00
2019-03-12T20:12:08.895Z,0.57
2019-03-12T20:15:16.665Z,0.73
2019-03-12T20:18:17.188Z,0.70
2019-03-12T20:24:01.433Z,1.10
2019-03-12T20:27:09.872Z,0.83
2019-03-12T20:30:16.977Z,0.87
2019-03-12T20:33:58.846Z,0.80
2019-03-12T20:36:57.335Z,0.73
2019-03-12T20:39:56.660Z,0.80
2019-03-12T20:42:53.343Z,0.70
2019-03-12T20:45:40.663Z,0.70
2019-03-12T20:48:40.113Z,0.60
2019-03-12T20:52:01.010Z,0.80
2019-03-12T20:55:14.690Z,0.77
2019-03-12T20:58:20.851Z,0.67
2019-03-12T21:01:43.023Z,0.60
2019-03-12T21:04:50.162Z,0.83
2019-03-12T21:08:00.402Z,1.03
2019-03-12T21:11:12.939Z,0.70
2019-03-12T21:14:27.326Z,1.10
2019-03-12T21:17:23.454Z,0.90
2019-03-12T21:20:33.096Z,0.87
2019-03-12T21:23:22.403Z,0.70
2019-03-12T21:26:10.055Z,0.80
2019-03-12T21:28:54.052Z,0.90
2019-03-12T21:30:59.856Z,0.70
2019-03-12T21:33:14.779Z,0.90
2019-03-12T21:35:11.998Z,1.03
2019-03-12T21:37:17.276Z,0.73
2019-03-12T21:39:22.351Z,0.77
2019-03-12T21:41:27.384Z,1.10
2019-03-12T21:43:33.425Z,1.07
2019-03-12T21:45:39.012Z,0.90
2019-03-12T21:47:44.363Z,0.90
2019-03-12T21:49:49.813Z,0.80
2019-03-12T21:51:55.392Z,0.90
2019-03-12T21:54:00.413Z,0.77
2019-03-12T21:56:05.495Z,0.80
2019-03-12T21:58:10.628Z,0.50
2019-03-12T22:00:16.518Z,0.27
2019-03-12T22:02:21.966Z,0.33
2019-03-12T22:04:27.082Z,0.20
2019-03-12T22:06:32.480Z,0.20
2019-03-12T22:08:37.674Z,0.30
2019-03-12T22:10:42.646Z,0.20
2019-03-12T22:12:47.590Z,0.20
2019-03-12T22:14:52.574Z,0.17
2019-03-12T22:17:00.946Z,0.10
2019-03-12T22:19:06.380Z,0.40
2019-03-12T22:21:13.059Z,0.40
2019-03-12T22:23:31.635Z,0.60
2019-03-12T22:25:36.504Z,0.30
2019-03-12T22:27:41.798Z,0.40
2019-03-12T22:29:47.402Z,0.40
2019-03-12T22:31:52.292Z,0.50
2019-03-12T22:33:57.204Z,0.50
2019-03-12T22:36:02.797Z,0.60
2019-03-12T22:38:08.875Z,0.40
2019-03-12T22:40:13.941Z,0.40
2019-03-12T22:42:19.430Z,0.40
2019-03-12T22:44:24.581Z,0.50
2019-03-12T22:46:29.863Z,0.50
2019-03-12T22:48:35.447Z,0.40
2019-03-12T22:50:40.651Z,0.53
2019-03-12T22:52:45.806Z,0.50
2019-03-12T22:54:51.036Z,0.60
2019-03-12T22:56:56.433Z,0.67
2019-03-12T22:59:01.368Z,0.77
2019-03-12T23:01:06.749Z,0.93
2019-03-12T23:03:11.809Z,0.90
2019-03-12T23:05:17.085Z,1.10
2019-03-12T23:07:21.982Z,0.93
2019-03-12T23:09:27.460Z,1.03
2019-03-12T23:11:32.396Z,1.20
2019-03-12T23:13:37.654Z,1.63
2019-03-12T23:15:43.040Z,1.10
2019-03-12T23:17:48.095Z,1.23
2019-03-12T23:19:53.043Z,1.37
2019-03-12T23:21:58.529Z,1.60
2019-03-12T23:24:03.672Z,1.20
2019-03-12T23:26:09.205Z,1.23
2019-03-12T23:28:14.433Z,1.37
2019-03-12T23:30:19.506Z,1.20
2019-03-12T23:32:24.948Z,1.00
2019-03-12T23:34:29.993Z,1.10
2019-03-12T23:36:34.916Z,1.00
2019-03-12T23:38:39.933Z,1.20
2019-03-12T23:40:44.934Z,1.30
2019-03-12T23:42:50.091Z,1.10
2019-03-12T23:44:55.165Z,1.30
2019-03-12T23:47:00.612Z,1.30
2019-03-12T23:49:05.461Z,1.40
2019-03-12T23:51:11.026Z,1.43
2019-03-12T23:53:15.992Z,1.30
2019-03-12T23:55:21.542Z,1.57
2019-03-12T23:57:26.940Z,1.53
2019-03-12T23:59:32.157Z,1.90
